GJ7DNI-13 Weather Reports


time (UTC)temp
C
wind
direction
speed
KPH
gust
KPH
rain 1hr
cm
rain 24hr
cm
rain mn
cm
humidity
%
barometer
mb
20260502130503 15 122 6.4 12.9 0.00 0.69 0.69 75 1012.2
20260502123503 15 107 1.6 4.8 0.00 0.69 0.69 83 1012.2
20260502123003 15 128 3.2 6.4 0.00 0.69 0.69 84 1012.2
20260502122503 15 120 1.6 4.8 0.00 0.69 0.69 86 1012.2
20260502122003 14 112 1.6 6.4 0.00 0.69 0.69 86 1012.3
20260502121503 15 115 1.6 4.8 0.00 0.69 0.69 88 1012.3
20260502121004 15 45 1.6 3.2 0.00 0.69 0.69 88 1012.2
20260502120503 15 44 1.6 3.2 0.00 0.69 0.69 88 1012.3
20260502115503 14 44 1.6 3.2 0.03 0.69 0.69 88 1012.3
20260502115003 14 21 3.2 4.8 0.05 0.69 0.69 88 1012.3
20260502114503 14 94 1.6 6.4 0.08 0.69 0.69 88 1012.3
20260502114003 13 221 0.0 3.2 0.13 0.69 0.69 88 1012.6
20260502113503 13 221 3.2 3.2 0.15 0.69 0.69 88 1012.6
20260502113004 13 220 4.8 9.7 0.20 0.69 0.69 87 1012.6
20260502112503 13 250 6.4 14.5 0.25 0.69 0.69 87 1012.2
20260502112003 13 63 4.8 12.9 0.41 0.69 0.69 87 1011.7
20260502111503 13 13 1.6 6.4 0.69 0.69 0.69 87 1012.4
20260502111003 13 159 3.2 6.4 0.69 0.69 0.69 87 1013.3
20260502110503 13 183 3.2 11.3 0.69 0.69 0.69 87 1013.7
20260502110004 13 213 3.2 8.0 0.66 0.66 0.66 87 1013.9
20260502105503 13 162 6.4 12.9 0.66 0.66 0.66 86 1014.1
20260502105004 13 222 9.7 17.7 0.64 0.64 0.64 86 1014.4
20260502104503 13 147 11.3 24.1 0.61 0.61 0.61 86 1014.6
20260502104003 13 158 11.3 24.1 0.56 0.56 0.56 85 1014.8
20260502103503 13 174 12.9 22.5 0.53 0.53 0.53 84 1015.0
20260502103004 13 178 16.1 27.4 0.48 0.48 0.48 83 1015.1
20260502102503 14 168 16.1 37.0 0.43 0.43 0.43 82 1015.2
20260502102003 15 100 11.3 37.0 0.28 0.28 0.28 81 1014.9
20260502101504 15 159 8.0 19.3 0.00 0.00 0.00 81 1014.3
20260502101004 15 118 9.7 19.3 0.00 0.00 0.00 80 1013.5
20260502100504 15 50 11.3 17.7 0.00 0.00 0.00 80 1013.3
20260502091504 15 77 6.4 16.1 0.00 0.00 0.00 79 1014.0
20260502091004 15 43 6.4 16.1 0.00 0.00 0.00 79 1014.0
20260502090504 15 63 6.4 12.9 0.00 0.00 0.00 79 1014.0
20260502071504 13 40 9.7 22.5 0.00 0.00 0.00 80 1015.5
20260502071004 13 9 9.7 20.9 0.00 0.00 0.00 81 1015.6
20260502070504 13 78 9.7 19.3 0.00 0.00 0.00 81 1015.6
20260502070004 13 45 8.0 20.9 0.00 0.00 0.00 81 1015.7
20260502065506 13 60 6.4 20.9 0.00 0.00 0.00 81 1015.8
20260502065004 13 79 8.0 16.1 0.00 0.00 0.00 82 1015.8
20260502064504 13 116 9.7 19.3 0.00 0.00 0.00 82 1015.8
20260502064004 13 49 9.7 19.3 0.00 0.00 0.00 82 1015.8
20260502063504 13 42 9.7 14.5 0.00 0.00 0.00 82 1015.8
20260502063004 13 33 11.3 24.1 0.00 0.00 0.00 82 1015.7
20260502062504 13 54 11.3 19.3 0.00 0.00 0.00 83 1015.7
20260502062004 13 46 11.3 22.5 0.00 0.00 0.00 83 1015.9
20260502061504 13 35 9.7 22.5 0.00 0.00 0.00 83 1015.8
20260502061004 13 54 9.7 19.3 0.00 0.00 0.00 83 1016.0
20260502060504 13 66 9.7 19.3 0.00 0.00 0.00 83 1016.1
20260502060004 13 42 8.0 17.7 0.00 0.00 0.00 83 1016.0
20260502055504 12 45 8.0 14.5 0.00 0.00 0.00 83 1016.0
20260502055004 12 29 8.0 16.1 0.00 0.00 0.00 83 1016.0
20260502054504 12 64 8.0 16.1 0.00 0.00 0.00 83 1016.1
20260502054004 12 61 8.0 16.1 0.00 0.00 0.00 83 1016.3
20260502053504 12 45 8.0 14.5 0.00 0.00 0.00 83 1016.3
20260502053004 12 29 6.4 16.1 0.00 0.00 0.00 83 1016.3
20260502052504 12 28 6.4 14.5 0.00 0.00 0.00 82 1016.4
20260502052004 12 51 4.8 9.7 0.00 0.00 0.00 82 1016.4
20260502051504 12 32 3.2 8.0 0.00 0.00 0.00 82 1016.4
20260502051004 12 69 3.2 6.4 0.00 0.00 0.00 82 1016.3
20260502050504 12 27 3.2 6.4 0.00 0.00 0.00 82 1016.3
20260502050004 12 359 4.8 8.0 0.00 0.00 0.00 82 1016.3
20260502045506 12 26 4.8 11.3 0.00 0.00 0.00 82 1016.3
20260502045004 12 12 4.8 11.3 0.00 0.00 0.00 82 1016.3
20260502044504 12 29 4.8 9.7 0.00 0.00 0.00 82 1016.4
20260502044004 12 12 4.8 9.7 0.00 0.00 0.00 82 1016.4
20260502043504 12 34 4.8 11.3 0.00 0.00 0.00 82 1016.5
20260502043004 12 41 6.4 12.9 0.00 0.00 0.00 82 1016.6
20260502042504 12 13 6.4 14.5 0.00 0.00 0.00 82 1016.6
20260502042004 12 29 6.4 12.9 0.00 0.00 0.00 82 1016.6
20260502041504 12 41 4.8 11.3 0.00 0.00 0.00 82 1016.6
20260502041004 12 25 4.8 12.9 0.00 0.00 0.00 82 1016.6
20260502040504 12 23 3.2 9.7 0.00 0.00 0.00 82 1016.7
20260502040004 12 49 3.2 8.0 0.00 0.00 0.00 83 1016.8
20260502035506 12 77 4.8 8.0 0.00 0.00 0.00 83 1016.8
20260502035004 12 48 4.8 11.3 0.00 0.00 0.00 83 1016.8
20260502034504 12 17 4.8 11.3 0.00 0.00 0.00 83 1016.9
20260502034004 12 57 3.2 8.0 0.00 0.00 0.00 83 1017.0
20260502033504 12 15 4.8 8.0 0.00 0.00 0.00 82 1017.0
20260502033004 12 29 4.8 8.0 0.00 0.00 0.00 82 1017.0
20260502032504 12 39 4.8 8.0 0.00 0.00 0.00 82 1017.1
20260502032004 12 39 3.2 6.4 0.00 0.00 0.00 82 1017.2
20260502031504 12 43 1.6 6.4 0.00 0.00 0.00 82 1017.2
20260502031004 12 58 0.0 4.8 0.00 0.00 0.00 82 1017.3
20260502030504 12 14 1.6 3.2 0.00 0.00 0.00 82 1017.2
20260502030004 12 359 3.2 4.8 0.00 0.00 0.00 82 1017.2
20260502025504 12 31 3.2 6.4 0.00 0.00 0.00 82 1017.3
20260502025004 12 4 1.6 4.8 0.00 0.00 0.00 82 1017.3
20260502024504 12 339 1.6 4.8 0.00 0.00 0.00 82 1017.5
20260502024004 12 326 1.6 4.8 0.00 0.00 0.00 82 1017.5
20260502023504 12 38 1.6 1.6 0.00 0.00 0.00 82 1017.6
20260502023004 12 39 3.2 6.4 0.00 0.00 0.00 82 1017.6
20260502022504 12 13 3.2 6.4 0.00 0.00 0.00 82 1017.6
20260502022004 12 21 3.2 6.4 0.00 0.00 0.00 82 1017.6
20260502021504 12 354 4.8 6.4 0.00 0.00 0.00 82 1017.7
20260502021004 12 14 3.2 8.0 0.00 0.00 0.00 82 1017.9
20260502020504 12 33 3.2 6.4 0.00 0.00 0.00 81 1018.0
20260502020004 12 56 3.2 8.0 0.00 0.00 0.00 81 1018.0
20260502015507 12 25 3.2 4.8 0.00 0.00 0.00 81 1018.1
20260502015004 12 12 3.2 6.4 0.00 0.00 0.00 81 1018.2
20260502014504 12 348 3.2 9.7 0.00 0.00 0.00 81 1018.2
20260502014004 12 350 3.2 8.0 0.00 0.00 0.00 81 1018.2
20260502013504 12 359 3.2 4.8 0.00 0.00 0.00 81 1018.3
20260502013004 12 8 3.2 4.8 0.00 0.00 0.00 80 1018.4
20260502012504 12 4 3.2 6.4 0.00 0.00 0.00 80 1018.5
20260502012004 13 354 1.6 4.8 0.00 0.00 0.00 80 1018.5
20260502011504 13 359 1.6 4.8 0.00 0.00 0.00 80 1018.6
20260502011004 13 13 1.6 3.2 0.00 0.00 0.00 79 1018.6
20260502010504 13 12 0.0 3.2 0.00 0.00 0.00 79 1018.6
20260502010004 13 340 0.0 1.6 0.00 0.00 0.00 79 1018.6
20260502005504 13 340 0.0 1.6 0.00 0.00 0.00 79 1018.6
20260502005004 13 359 1.6 1.6 0.00 0.00 0.00 79 1018.7
20260502004504 13 340 3.2 4.8 0.00 0.00 0.00 78 1018.7
20260502004005 13 327 3.2 4.8 0.00 0.00 0.00 78 1018.7
20260502003504 13 333 3.2 6.4 0.00 0.00 0.00 78 1018.7
20260502003005 13 18 4.8 8.0 0.00 0.00 0.00 77 1018.8
20260502002504 13 19 4.8 9.7 0.00 0.00 0.00 76 1018.8
20260502002004 13 49 4.8 6.4 0.00 0.00 0.00 75 1018.8
20260502001505 13 58 3.2 8.0 0.00 0.00 0.00 74 1018.9
20260502001005 12 4 1.6 6.4 0.00 0.00 0.00 72 1018.9
20260502000505 12 23 1.6 3.2 0.00 0.00 0.00 72 1019.0
20260502000005 12 23 3.2 4.8 0.00 0.00 0.00 72 1019.0
20260501235505 12 37 3.2 6.4 0.00 0.00 0.00 71 1019.1
20260501235005 12 23 3.2 6.4 0.00 0.00 0.00 71 1019.1
20260501234505 12 33 3.2 6.4 0.00 0.00 0.00 71 1019.1
20260501234005 13 33 3.2 6.4 0.00 0.00 0.00 71 1019.2
20260501233505 13 67 1.6 6.4 0.00 0.00 0.00 71 1019.2
20260501233005 13 38 1.6 3.2 0.00 0.00 0.00 71 1019.3
20260501232505 13 37 1.6 3.2 0.00 0.00 0.00 71 1019.3
20260501232005 13 38 1.6 4.8 0.00 0.00 0.00 71 1019.3
20260501231505 13 44 1.6 4.8 0.00 0.00 0.00 72 1019.4
20260501231005 13 45 1.6 4.8 0.00 0.00 0.00 72 1019.5
20260501230505 13 25 1.6 4.8 0.00 0.00 0.00 72 1019.5
20260501230005 13 359 1.6 4.8 0.00 0.00 0.00 73 1019.5
20260501225505 13 322 1.6 6.4 0.00 0.00 0.00 73 1019.5
20260501225005 13 359 1.6 4.8 0.00 0.00 0.00 73 1019.6
20260501224505 13 359 1.6 1.6 0.00 0.00 0.00 74 1019.6
20260501224005 13 349 3.2 6.4 0.00 0.00 0.00 74 1019.5
20260501223505 13 354 3.2 6.4 0.00 0.00 0.00 74 1019.6
20260501223005 13 9 3.2 8.0 0.00 0.00 0.00 74 1019.6
20260501222505 13 359 3.2 6.4 0.00 0.00 0.00 74 1019.6
20260501222005 13 8 3.2 4.8 0.00 0.00 0.00 75 1019.7
20260501221505 13 4 1.6 6.4 0.00 0.00 0.00 75 1019.7
20260501221005 13 14 0.0 3.2 0.00 0.00 0.00 76 1019.8
20260501220505 13 14 0.0 3.2 0.00 0.00 0.00 76 1019.7
20260501220005 13 8 1.6 4.8 0.00 0.00 0.00 76 1019.7
20260501215505 13 359 1.6 6.4 0.00 0.00 0.00 76 1019.7
20260501215005 13 359 3.2 4.8 0.00 0.00 0.00 76 1019.6
20260501214505 13 359 3.2 4.8 0.00 0.00 0.00 76 1019.7
20260501214005 13 350 3.2 4.8 0.00 0.00 0.00 76 1019.8
20260501213505 13 347 1.6 6.4 0.00 0.00 0.00 76 1019.8
20260501213005 13 327 1.6 4.8 0.00 0.00 0.00 76 1019.8
20260501212505 13 359 1.6 6.4 0.00 0.00 0.00 76 1019.8
20260501212005 13 320 1.6 3.2 0.00 0.00 0.00 76 1019.9
20260501211505 13 320 1.6 4.8 0.00 0.00 0.00 75 1019.9
20260501211005 13 324 1.6 4.8 0.00 0.00 0.00 75 1020.0
20260501210505 13 324 0.0 4.8 0.00 0.00 0.00 75 1019.9
20260501210005 13 10 0.0 0.0 0.00 0.00 0.00 75 1019.9
20260501205505 13 10 0.0 0.0 0.00 0.00 0.00 75 1019.8
20260501205005 13 22 0.0 1.6 0.00 0.00 0.00 74 1019.8
20260501204505 13 25 1.6 4.8 0.00 0.00 0.00 74 1019.8
20260501204005 13 359 1.6 4.8 0.00 0.00 0.00 74 1019.8
20260501203505 13 328 3.2 6.4 0.00 0.00 0.00 74 1019.8
20260501203005 13 359 1.6 4.8 0.00 0.00 0.00 74 1019.8
20260501202505 13 359 1.6 6.4 0.00 0.00 0.00 74 1019.7
20260501202005 13 359 3.2 4.8 0.00 0.00 0.00 73 1019.7
20260501201505 13 317 1.6 4.8 0.00 0.00 0.00 73 1019.7
20260501201005 13 326 0.0 3.2 0.00 0.00 0.00 73 1019.8
20260501200505 13 359 0.0 3.2 0.00 0.00 0.00 73 1019.7
20260501200005 13 4 1.6 3.2 0.00 0.00 0.00 73 1019.6
20260501195505 13 4 1.6 3.2 0.00 0.00 0.00 73 1019.5
20260501195005 13 4 1.6 3.2 0.00 0.00 0.00 73 1019.6
20260501194505 13 4 0.0 3.2 0.00 0.00 0.00 72 1019.5
20260501194005 13 4 1.6 3.2 0.00 0.00 0.00 72 1019.5
20260501193505 13 4 3.2 4.8 0.00 0.00 0.00 72 1019.5
20260501193005 13 12 4.8 8.0 0.00 0.00 0.00 72 1019.5
20260501192505 13 11 4.8 12.9 0.00 0.00 0.00 72 1019.5
20260501192005 13 4 4.8 8.0 0.00 0.00 0.00 72 1019.4
20260501191505 13 359 4.8 8.0 0.00 0.00 0.00 72 1019.4
20260501191005 13 344 3.2 8.0 0.00 0.00 0.00 72 1019.3
20260501190505 14 347 3.2 8.0 0.00 0.00 0.00 72 1019.3
20260501190005 14 359 4.8 6.4 0.00 0.00 0.00 72 1019.3
20260501185505 14 359 6.4 11.3 0.00 0.00 0.00 72 1019.3
20260501185005 13 13 8.0 14.5 0.00 0.00 0.00 72 1019.3
20260501184505 14 345 8.0 16.1 0.00 0.00 0.00 72 1019.2
20260501184005 14 349 8.0 14.5 0.00 0.00 0.00 72 1019.2
20260501183505 14 322 8.0 14.5 0.00 0.00 0.00 71 1019.2
20260501183005 14 343 6.4 14.5 0.00 0.00 0.00 71 1019.2
20260501182505 15 319 6.4 12.9 0.00 0.00 0.00 71 1019.2
20260501182005 15 354 6.4 14.5 0.00 0.00 0.00 70 1019.2
20260501181505 15 321 6.4 12.9 0.00 0.00 0.00 71 1019.2
20260501181005 15 331 6.4 12.9 0.00 0.00 0.00 71 1019.1
20260501180505 15 4 8.0 14.5 0.00 0.00 0.00 70 1019.1
20260501180005 15 9 8.0 12.9 0.00 0.00 0.00 72 1019.1
20260501175505 15 318 8.0 14.5 0.00 0.00 0.00 71 1019.0
20260501175005 15 354 8.0 14.5 0.00 0.00 0.00 71 1019.0
20260501174505 15 4 8.0 14.5 0.00 0.00 0.00 70 1019.0
20260501174005 16 354 8.0 12.9 0.00 0.00 0.00 69 1019.0
20260501173505 16 317 6.4 12.9 0.00 0.00 0.00 67 1019.0
20260501173005 16 18 8.0 14.5 0.00 0.00 0.00 68 1019.0
20260501172505 16 354 9.7 17.7 0.00 0.00 0.00 68 1019.0
20260501172005 17 12 6.4 17.7 0.00 0.00 0.00 65 1018.9
20260501171505 17 4 3.2 14.5 0.00 0.00 0.00 67 1018.9
20260501171005 17 214 3.2 6.4 0.00 0.00 0.00 66 1019.0
20260501170505 17 206 4.8 9.7 0.00 0.00 0.00 68 1019.0
20260501170005 17 238 3.2 9.7 0.00 0.00 0.00 67 1019.0
20260501165505 17 185 3.2 6.4 0.00 0.00 0.00 65 1019.0
20260501165005 17 276 3.2 11.3 0.00 0.00 0.00 63 1019.0
20260501164505 18 306 3.2 4.8 0.00 0.00 0.00 62 1019.0
20260501164005 17 316 3.2 8.0 0.00 0.00 0.00 64 1019.1
20260501163505 18 318 4.8 8.0 0.00 0.00 0.00 61 1019.0
20260501163005 17 63 4.8 11.3 0.00 0.00 0.00 63 1019.1
20260501162505 17 249 6.4 12.9 0.00 0.00 0.00 64 1019.1
20260501162005 17 257 6.4 12.9 0.00 0.00 0.00 64 1019.1
20260501161505 17 296 6.4 12.9 0.00 0.00 0.00 65 1019.0
20260501161005 17 251 9.7 16.1 0.00 0.00 0.00 64 1019.1
20260501160505 17 256 9.7 16.1 0.00 0.00 0.00 64 1019.0
20260501160005 17 262 9.7 14.5 0.00 0.00 0.00 64 1019.0
20260501155505 17 262 8.0 14.5 0.00 0.00 0.00 63 1019.1
20260501155005 17 268 8.0 14.5 0.00 0.00 0.00 63 1019.0
20260501154505 17 261 8.0 14.5 0.00 0.00 0.00 64 1019.1
20260501154005 18 257 4.8 14.5 0.00 0.00 0.00 63 1019.1
20260501153505 18 250 4.8 11.3 0.00 0.00 0.00 64 1019.2
20260501153005 17 237 4.8 12.9 0.00 0.00 0.00 63 1019.2
20260501152505 17 223 4.8 11.3 0.00 0.00 0.00 64 1019.2
20260501152005 18 226 3.2 11.3 0.00 0.00 0.00 63 1019.3
20260501151505 18 258 1.6 6.4 0.00 0.00 0.00 62 1019.3
20260501151005 18 247 1.6 6.4 0.00 0.00 0.00 61 1019.3
20260501150506 18 180 3.2 8.0 0.00 0.00 0.00 62 1019.4
20260501150005 18 246 3.2 12.9 0.00 0.00 0.00 63 1019.5
20260501145505 18 260 3.2 9.7 0.00 0.00 0.00 61 1019.5
20260501145005 20 149 3.2 9.7 0.00 0.00 0.00 60 1019.6
20260501144505 18 219 3.2 9.7 0.00 0.00 0.00 61 1019.6
20260501144005 19 181 3.2 8.0 0.00 0.00 0.00 60 1019.6
20260501143505 19 231 3.2 9.7 0.00 0.00 0.00 61 1019.7
20260501143005 19 224 3.2 8.0 0.00 0.00 0.00 62 1019.7
20260501142505 18 185 3.2 8.0 0.00 0.00 0.00 62 1019.8
20260501142005 20 164 3.2 9.7 0.00 0.00 0.00 60 1019.8
20260501141505 19 195 3.2 8.0 0.00 0.00 0.00 61 1019.8
20260501141005 18 175 4.8 8.0 0.00 0.00 0.00 63 1019.8
20260501140505 18 167 3.2 9.7 0.00 0.00 0.00 61 1019.9
20260501140006 18 203 3.2 11.3 0.00 0.00 0.00 61 1019.9
20260501135506 19 139 4.8 8.0 0.00 0.00 0.00 61 1019.9
20260501135006 18 146 4.8 11.3 0.00 0.00 0.00 63 1020.0
20260501134506 18 193 3.2 6.4 0.00 0.00 0.00 62 1020.0
20260501134006 18 185 3.2 11.3 0.00 0.00 0.00 63 1020.0